Houghton Lake Heights, Michigan
Current Conditions -  °F | °C
As of 1:53 PM on Thursday 30 Oct 2014 (Local Time) from KHTL Reporting Station
Overcast Overcast  
Wind Chill: 45°   Ceiling: 4200
Heat Index: 45°   Visibility: 10mi
Dew Point: 37°   Wind: 3mph
Humidity: 74%   Direction: 210°SSW
Pressure: 30.05"   Gusts: NA
Location:  44.33°N, 84.77°W
Report Text: KHTL 301753Z AUTO 21003KT 10SM FEW023 OVC042 07/03 A3005 RMK AO2 SLP184 T00720028 10072 20033 58012
Loading
Personal Weather Stations






























Interactive Weather Map
Tropical Storm Tracking
New forecast layout! Learn more

10-Day Weather Forecast

Advertisements
Track Severe Weather on mobile